Time;durP1;ratioP1;P1;durP2;ratioP2;P2;SDS_P1;SDS_P2;PMS_P1;PMS_P2;Temp;Humidity;BMP_temperature;BMP_pressure;BME280_temperature;BME280_humidity;BME280_pressure;Samples;Min_cycle;Max_cycle;Signal;HPM_P1;HPM_P2
2023/12/14 00:01:52;;;;;;;5.82;2.75;;;4.90;99.90;;;;;;5116525;27;20099;-62
2023/12/14 00:04:17;;;;;;;7.32;2.42;;;4.90;99.90;;;;;;5117461;27;20399;-63
2023/12/14 00:06:43;;;;;;;7.70;3.10;;;4.90;99.90;;;;;;5100209;27;20035;-62
2023/12/14 00:09:09;;;;;;;8.13;4.10;;;4.90;99.90;;;;;;5116609;27;20399;-62
2023/12/14 00:11:41;;;;;;;8.05;2.80;;;4.90;99.90;;;;;;5117404;27;20035;-62
2023/12/14 00:14:06;;;;;;;6.93;2.75;;;4.90;99.90;;;;;;5116853;27;20046;-62
2023/12/14 00:16:32;;;;;;;7.28;3.45;;;4.90;99.90;;;;;;5116785;27;20035;-62
2023/12/14 00:18:58;;;;;;;7.13;3.05;;;4.90;99.90;;;;;;5117141;27;20027;-62
2023/12/14 00:21:24;;;;;;;7.43;2.60;;;4.90;99.90;;;;;;5134454;27;20035;-62
2023/12/14 00:23:49;;;;;;;6.97;3.60;;;4.80;99.90;;;;;;5117128;27;20047;-62
2023/12/14 00:26:17;;;;;;;5.55;2.45;;;4.90;99.90;;;;;;5116981;27;20043;-62
2023/12/14 00:28:42;;;;;;;6.45;2.65;;;4.80;99.90;;;;;;5134366;27;20043;-62
2023/12/14 00:31:08;;;;;;;6.13;2.78;;;4.80;99.90;;;;;;5116784;27;20548;-62
2023/12/14 00:33:34;;;;;;;7.00;2.45;;;4.80;99.90;;;;;;5115427;27;20110;-62
2023/12/14 00:35:59;;;;;;;6.90;2.97;;;4.80;99.90;;;;;;5116205;27;20035;-62
2023/12/14 00:38:25;;;;;;;6.95;2.92;;;4.80;99.90;;;;;;5116712;27;20043;-62
2023/12/14 00:40:51;;;;;;;6.53;2.78;;;4.80;99.90;;;;;;5135024;27;20037;-62
2023/12/14 00:43:16;;;;;;;5.80;2.55;;;4.80;99.90;;;;;;5115726;27;20035;-62
2023/12/14 00:45:42;;;;;;;7.43;3.10;;;4.80;99.90;;;;;;5134691;27;20035;-62
2023/12/14 00:48:08;;;;;;;7.22;2.65;;;4.80;99.90;;;;;;5116490;27;20454;-62
2023/12/14 00:50:33;;;;;;;6.00;2.60;;;4.70;99.90;;;;;;5115719;27;20047;-62
2023/12/14 00:52:59;;;;;;;6.63;2.78;;;4.80;99.90;;;;;;5135066;27;20118;-62
2023/12/14 00:55:24;;;;;;;8.30;2.80;;;4.70;99.90;;;;;;5133338;27;20071;-62
2023/12/14 00:57:50;;;;;;;7.05;2.83;;;4.70;99.90;;;;;;5115438;27;20118;-62
2023/12/14 01:00:16;;;;;;;6.97;3.10;;;4.70;99.90;;;;;;5133341;27;20441;-62
2023/12/14 01:02:42;;;;;;;8.00;2.88;;;4.80;99.90;;;;;;5133256;27;20589;-62
2023/12/14 01:05:08;;;;;;;6.45;2.70;;;4.80;99.90;;;;;;5132661;27;20035;-62
2023/12/14 01:07:33;;;;;;;7.28;2.90;;;4.80;99.90;;;;;;5116089;27;20167;-62
2023/12/14 01:09:59;;;;;;;5.82;2.70;;;4.80;99.90;;;;;;5133325;27;20043;-62
2023/12/14 01:12:24;;;;;;;7.95;3.17;;;4.80;99.90;;;;;;5133532;27;20039;-63
2023/12/14 01:14:50;;;;;;;6.30;2.65;;;4.80;99.90;;;;;;5124161;27;20039;-62
2023/12/14 01:17:16;;;;;;;7.65;2.95;;;4.80;99.90;;;;;;5115435;27;20050;-62
2023/12/14 01:19:41;;;;;;;6.55;3.35;;;4.80;99.90;;;;;;5115625;27;20067;-62
2023/12/14 01:22:07;;;;;;;5.75;2.47;;;4.80;99.90;;;;;;5116348;27;20043;-62
2023/12/14 01:24:33;;;;;;;7.30;2.92;;;4.80;99.90;;;;;;5114897;27;20480;-62
2023/12/14 01:26:59;;;;;;;6.47;3.10;;;4.80;99.90;;;;;;5115858;27;20051;-62
2023/12/14 01:29:24;;;;;;;7.63;2.60;;;4.80;99.90;;;;;;5134008;27;20082;-62
2023/12/14 01:31:50;;;;;;;4.72;2.22;;;4.80;99.90;;;;;;5115200;27;20047;-62
2023/12/14 01:34:16;;;;;;;7.10;3.10;;;4.80;99.90;;;;;;5115527;27;20447;-62
2023/12/14 01:36:42;;;;;;;7.55;3.83;;;4.80;99.90;;;;;;5115354;27;20072;-62
2023/12/14 01:39:07;;;;;;;7.07;2.70;;;4.80;99.90;;;;;;5133234;27;20035;-62
2023/12/14 01:41:33;;;;;;;9.55;3.85;;;4.80;99.90;;;;;;5115310;27;20441;-62
2023/12/14 01:43:59;;;;;;;6.50;3.20;;;4.80;99.90;;;;;;5115568;27;20034;-62
2023/12/14 01:46:25;;;;;;;9.90;3.90;;;4.80;99.90;;;;;;5132286;27;20404;-62
2023/12/14 01:48:52;;;;;;;8.40;3.15;;;4.80;99.90;;;;;;5101932;27;20032;-62
2023/12/14 01:51:18;;;;;;;8.35;3.38;;;4.80;99.90;;;;;;5132385;27;20043;-62
2023/12/14 01:53:44;;;;;;;6.05;3.30;;;4.80;99.90;;;;;;5131455;27;20091;-62
2023/12/14 01:56:10;;;;;;;6.95;3.58;;;4.80;99.90;;;;;;5133338;27;20110;-62
2023/12/14 01:58:36;;;;;;;8.23;3.63;;;4.80;99.90;;;;;;5115028;27;20038;-62
2023/12/14 02:01:09;;;;;;;7.30;2.85;;;4.80;99.90;;;;;;5131420;27;20051;-62
2023/12/14 02:03:35;;;;;;;7.10;3.35;;;4.80;99.90;;;;;;5115001;27;20047;-62
2023/12/14 02:06:00;;;;;;;7.95;2.90;;;4.80;99.90;;;;;;5132505;27;20077;-62
2023/12/14 02:08:27;;;;;;;6.97;3.17;;;4.80;99.90;;;;;;5131223;27;20122;-62
2023/12/14 02:10:53;;;;;;;8.07;3.15;;;4.80;99.90;;;;;;5124454;27;20543;-62
2023/12/14 02:13:19;;;;;;;7.88;2.90;;;4.80;99.90;;;;;;5115095;27;20127;-62
2023/12/14 02:15:44;;;;;;;8.13;3.65;;;4.80;99.90;;;;;;5096630;27;20035;-62
2023/12/14 02:18:10;;;;;;;8.27;3.75;;;4.80;99.90;;;;;;5097808;27;20092;-62
2023/12/14 02:20:35;;;;;;;10.85;4.00;;;4.80;99.90;;;;;;5114272;27;20387;-62
2023/12/14 02:23:01;;;;;;;7.78;3.33;;;4.80;99.90;;;;;;5115225;27;20534;-62
2023/12/14 02:25:27;;;;;;;8.50;3.67;;;4.80;99.90;;;;;;5097840;27;20071;-62
2023/12/14 02:27:53;;;;;;;8.95;3.47;;;4.80;99.90;;;;;;5114264;27;20089;-62
2023/12/14 02:30:19;;;;;;;7.15;3.33;;;4.80;99.90;;;;;;5115034;27;20068;-62
2023/12/14 02:32:45;;;;;;;9.25;3.78;;;4.80;99.90;;;;;;5114564;28;20408;-62
2023/12/14 02:35:10;;;;;;;8.65;4.00;;;4.80;99.90;;;;;;5113793;28;20043;-62
2023/12/14 02:37:43;;;;;;;8.70;3.63;;;4.80;99.90;;;;;;5114640;28;20043;-62
2023/12/14 02:40:11;;;;;;;7.93;3.88;;;4.80;99.90;;;;;;5114104;28;20031;-62
2023/12/14 02:42:37;;;;;;;8.27;3.83;;;4.90;99.90;;;;;;5113838;28;20043;-62
2023/12/14 02:45:03;;;;;;;8.27;3.72;;;4.80;99.90;;;;;;5097802;28;20042;-62
2023/12/14 02:47:29;;;;;;;10.57;3.00;;;4.80;99.90;;;;;;5126113;28;20093;-62
2023/12/14 02:49:55;;;;;;;7.05;3.80;;;4.80;99.90;;;;;;5129625;28;20047;-62
2023/12/14 02:52:22;;;;;;;9.68;4.07;;;4.80;99.90;;;;;;5131457;28;20068;-62
2023/12/14 02:54:48;;;;;;;12.23;3.92;;;4.80;99.90;;;;;;5131545;28;20085;-62
2023/12/14 02:57:18;;;;;;;13.75;4.47;;;4.90;99.90;;;;;;5114670;27;20074;-62
2023/12/14 02:59:44;;;;;;;10.13;4.57;;;4.80;99.90;;;;;;5135626;27;20047;-62
2023/12/14 03:02:10;;;;;;;12.43;4.07;;;4.80;99.90;;;;;;5135639;27;20031;-62
2023/12/14 03:04:39;;;;;;;11.70;4.97;;;4.80;99.90;;;;;;5134745;27;20407;-62
2023/12/14 03:07:04;;;;;;;10.82;4.38;;;4.80;99.90;;;;;;5136857;27;20047;-62
2023/12/14 03:09:30;;;;;;;13.25;4.05;;;4.90;99.90;;;;;;5118161;27;20043;-62
2023/12/14 03:11:56;;;;;;;11.07;5.20;;;4.90;99.90;;;;;;5118138;27;20502;-62
2023/12/14 03:14:22;;;;;;;10.70;4.65;;;4.80;99.90;;;;;;5118251;27;20185;-62
2023/12/14 03:16:48;;;;;;;12.80;4.38;;;4.90;99.90;;;;;;5118152;27;20043;-62
2023/12/14 03:19:15;;;;;;;13.25;4.88;;;4.90;99.90;;;;;;5118106;27;20136;-62
2023/12/14 03:21:42;;;;;;;10.27;4.35;;;4.90;99.90;;;;;;5117844;27;20042;-62
2023/12/14 03:24:07;;;;;;;9.40;4.05;;;4.90;99.90;;;;;;5117362;27;20053;-62
2023/12/14 03:26:33;;;;;;;15.57;4.60;;;4.90;99.90;;;;;;5118160;27;20047;-62
2023/12/14 03:28:58;;;;;;;8.10;3.33;;;4.90;99.90;;;;;;5118164;27;20126;-62
2023/12/14 03:31:25;;;;;;;9.40;4.20;;;4.80;99.90;;;;;;5117310;27;20055;-62
2023/12/14 03:33:50;;;;;;;13.73;4.30;;;4.90;99.90;;;;;;5117962;27;20061;-62
2023/12/14 03:36:16;;;;;;;13.60;3.97;;;4.90;99.90;;;;;;5117546;27;20462;-62
2023/12/14 03:38:42;;;;;;;10.00;3.40;;;4.80;99.90;;;;;;5099963;27;20043;-62
2023/12/14 03:41:07;;;;;;;11.75;5.85;;;4.90;99.90;;;;;;5118325;27;20062;-62
2023/12/14 03:43:33;;;;;;;9.15;3.33;;;4.90;99.90;;;;;;5117937;27;20503;-62
2023/12/14 03:45:58;;;;;;;8.98;4.25;;;4.90;99.90;;;;;;5134506;27;20540;-62
2023/12/14 03:48:24;;;;;;;6.68;3.05;;;4.90;99.90;;;;;;5136038;27;20055;-62
2023/12/14 03:50:50;;;;;;;7.82;3.70;;;4.80;99.90;;;;;;5100879;27;20051;-62
2023/12/14 03:53:15;;;;;;;10.23;4.28;;;4.80;99.90;;;;;;5130624;27;20047;-62
2023/12/14 03:55:41;;;;;;;7.68;3.60;;;4.90;99.90;;;;;;5136126;27;20076;-62
2023/12/14 03:58:06;;;;;;;9.73;3.72;;;4.80;99.90;;;;;;5134708;27;20119;-62
2023/12/14 04:00:32;;;;;;;8.07;3.80;;;4.90;99.90;;;;;;5116105;27;20116;-62
2023/12/14 04:02:58;;;;;;;10.68;3.55;;;4.90;99.90;;;;;;5117438;27;20510;-62
2023/12/14 04:05:24;;;;;;;12.18;3.63;;;4.90;99.90;;;;;;5100328;27;20145;-62
2023/12/14 04:07:49;;;;;;;10.40;4.13;;;4.90;99.90;;;;;;5099017;27;20051;-62
2023/12/14 04:10:15;;;;;;;8.15;3.92;;;4.80;99.90;;;;;;5100323;27;20047;-62
2023/12/14 04:12:41;;;;;;;9.23;4.18;;;4.80;99.90;;;;;;5117087;27;20130;-62
2023/12/14 04:15:09;;;;;;;9.55;3.97;;;4.80;99.90;;;;;;5117008;27;20444;-62
2023/12/14 04:17:35;;;;;;;10.10;3.90;;;4.80;99.90;;;;;;5117055;27;20153;-62
2023/12/14 04:20:01;;;;;;;9.93;3.97;;;4.80;99.90;;;;;;5107056;27;20533;-62
2023/12/14 04:22:27;;;;;;;11.82;4.90;;;4.80;99.90;;;;;;5134538;27;20046;-62
2023/12/14 04:24:53;;;;;;;12.68;4.65;;;4.80;99.90;;;;;;5134420;27;20039;-62
2023/12/14 04:27:19;;;;;;;11.38;4.78;;;4.80;99.90;;;;;;5116061;27;20472;-62
2023/12/14 04:29:44;;;;;;;7.82;3.85;;;4.80;99.90;;;;;;5116984;27;20129;-62
2023/12/14 04:32:10;;;;;;;8.60;4.25;;;4.80;99.90;;;;;;5103351;27;20126;-62
2023/12/14 04:34:36;;;;;;;9.10;4.63;;;4.80;99.90;;;;;;5115882;27;20122;-62
2023/12/14 04:37:02;;;;;;;10.77;3.78;;;4.80;99.90;;;;;;5099957;27;20141;-62
2023/12/14 04:39:27;;;;;;;9.50;4.45;;;4.80;99.90;;;;;;5134908;27;20038;-62
2023/12/14 04:41:54;;;;;;;8.70;4.65;;;4.80;99.90;;;;;;5098882;27;20069;-62
2023/12/14 04:44:23;;;;;;;11.77;5.07;;;4.80;99.90;;;;;;5116527;27;20039;-62
2023/12/14 04:46:49;;;;;;;9.85;4.30;;;4.80;99.90;;;;;;5116467;27;20488;-62
2023/12/14 04:49:15;;;;;;;13.20;4.55;;;4.80;99.90;;;;;;5133821;27;20484;-62
2023/12/14 04:51:41;;;;;;;12.77;4.78;;;4.80;99.90;;;;;;5134734;27;20087;-62
2023/12/14 04:54:06;;;;;;;8.57;4.40;;;4.80;99.90;;;;;;5116990;27;20476;-62
2023/12/14 04:56:32;;;;;;;8.95;3.83;;;4.70;99.90;;;;;;5115296;27;20050;-62
2023/12/14 04:58:58;;;;;;;8.23;4.22;;;4.70;99.90;;;;;;5099416;27;20035;-62
2023/12/14 05:01:30;;;;;;;10.15;4.65;;;4.80;99.90;;;;;;5115854;27;20076;-62
2023/12/14 05:03:56;;;;;;;14.45;4.50;;;4.70;99.90;;;;;;5115586;27;20054;-62
2023/12/14 05:06:21;;;;;;;7.78;3.90;;;4.80;99.90;;;;;;5116053;27;20039;-62
2023/12/14 05:08:47;;;;;;;10.73;5.00;;;4.70;99.90;;;;;;5115947;27;20042;-62
2023/12/14 05:11:13;;;;;;;9.50;4.32;;;4.70;99.90;;;;;;5115542;27;20043;-62
2023/12/14 05:13:39;;;;;;;10.27;5.03;;;4.80;99.90;;;;;;5134437;27;20043;-62
2023/12/14 05:16:06;;;;;;;12.15;4.60;;;4.80;99.90;;;;;;5116188;27;20117;-62
2023/12/14 05:18:31;;;;;;;10.98;4.63;;;4.80;99.90;;;;;;5114487;27;20077;-62
2023/12/14 05:20:57;;;;;;;10.90;4.30;;;4.70;99.90;;;;;;5098352;27;20066;-62
2023/12/14 05:23:23;;;;;;;12.38;3.90;;;4.80;99.90;;;;;;5115903;27;20489;-62
2023/12/14 05:25:49;;;;;;;10.07;4.78;;;4.70;99.90;;;;;;5115379;27;20107;-62
2023/12/14 05:28:15;;;;;;;10.85;4.47;;;4.70;99.90;;;;;;5115764;27;20031;-62
2023/12/14 05:30:41;;;;;;;13.13;4.07;;;4.70;99.90;;;;;;5097751;27;20047;-62
2023/12/14 05:33:07;;;;;;;10.73;4.93;;;4.80;99.90;;;;;;5115847;27;20456;-62
2023/12/14 05:35:32;;;;;;;11.55;4.70;;;4.70;99.90;;;;;;5098892;27;20365;-62
2023/12/14 05:37:58;;;;;;;8.63;4.78;;;4.80;99.90;;;;;;5115194;27;20100;-62
2023/12/14 05:40:24;;;;;;;11.25;4.93;;;4.80;99.90;;;;;;5098750;27;20484;-62
2023/12/14 05:42:50;;;;;;;9.80;4.22;;;4.80;99.90;;;;;;5115399;27;20524;-62
2023/12/14 05:45:15;;;;;;;11.48;4.10;;;4.80;99.90;;;;;;5114557;27;20071;-62
2023/12/14 05:47:41;;;;;;;13.00;4.22;;;4.80;99.90;;;;;;5133369;27;20402;-62
2023/12/14 05:50:09;;;;;;;11.30;4.45;;;4.80;99.90;;;;;;5132855;27;20039;-62
2023/12/14 05:52:36;;;;;;;10.60;4.88;;;4.80;99.90;;;;;;5132637;27;20050;-62
2023/12/14 05:55:01;;;;;;;13.82;4.72;;;4.80;99.90;;;;;;5115483;27;20039;-62
2023/12/14 05:57:27;;;;;;;10.35;5.03;;;4.80;99.90;;;;;;5115128;27;20050;-62
2023/12/14 05:59:53;;;;;;;10.68;4.22;;;4.80;99.90;;;;;;5114165;27;20514;-62
2023/12/14 06:02:19;;;;;;;10.85;4.47;;;4.80;99.90;;;;;;5114777;27;20039;-62
2023/12/14 06:04:44;;;;;;;10.73;4.15;;;4.80;99.90;;;;;;5098318;27;20042;-62
2023/12/14 06:07:10;;;;;;;11.25;5.43;;;4.80;99.90;;;;;;5114183;27;20043;-62
2023/12/14 06:09:36;;;;;;;9.45;4.38;;;4.80;99.90;;;;;;5115100;27;20046;-62
2023/12/14 06:12:02;;;;;;;10.95;5.13;;;4.80;99.90;;;;;;5098271;27;20426;-62
2023/12/14 06:14:29;;;;;;;7.65;3.83;;;4.80;99.90;;;;;;5114006;27;20043;-62
2023/12/14 06:16:55;;;;;;;9.60;3.60;;;4.80;99.90;;;;;;5114927;27;20053;-62
2023/12/14 06:19:20;;;;;;;10.95;5.03;;;4.90;99.90;;;;;;5132313;27;20031;-62
2023/12/14 06:21:46;;;;;;;9.65;4.30;;;4.90;99.90;;;;;;5121314;27;20046;-62
2023/12/14 06:24:12;;;;;;;8.98;3.75;;;4.80;99.90;;;;;;5115026;27;20039;-62
2023/12/14 06:26:42;;;;;;;8.32;4.03;;;4.90;99.90;;;;;;5114998;27;20440;-62
2023/12/14 06:29:09;;;;;;;8.38;4.35;;;4.90;99.90;;;;;;5132685;27;20395;-62
2023/12/14 06:31:34;;;;;;;12.13;4.65;;;4.90;99.90;;;;;;5097764;27;20078;-62
2023/12/14 06:34:03;;;;;;;7.93;3.75;;;4.90;99.90;;;;;;5132715;27;20384;-62
2023/12/14 06:36:32;;;;;;;8.63;4.05;;;4.90;99.90;;;;;;5097635;27;20095;-62
2023/12/14 06:38:58;;;;;;;10.95;3.67;;;4.90;99.90;;;;;;5098525;28;20476;-62
2023/12/14 06:41:26;;;;;;;7.80;3.83;;;4.90;99.90;;;;;;5132128;28;20049;-62
2023/12/14 06:43:52;;;;;;;8.40;4.20;;;4.90;99.90;;;;;;5114481;28;20039;-62
2023/12/14 06:46:18;;;;;;;9.75;4.93;;;4.90;99.90;;;;;;5114433;28;20076;-62
2023/12/14 06:48:45;;;;;;;10.25;4.53;;;4.90;99.90;;;;;;5132028;28;20057;-62
2023/12/14 06:51:11;;;;;;;11.88;4.70;;;4.90;99.90;;;;;;5114577;28;20437;-62
2023/12/14 06:53:41;;;;;;;10.25;5.43;;;4.90;99.90;;;;;;5114431;28;20035;-62
2023/12/14 06:56:10;;;;;;;13.27;5.20;;;4.90;99.90;;;;;;5113943;28;20073;-62
2023/12/14 06:58:45;;;;;;;11.82;5.72;;;4.90;99.90;;;;;;5115119;28;20491;-62
2023/12/14 07:01:15;;;;;;;12.15;7.50;;;4.90;99.90;;;;;;5114323;28;20052;-61
2023/12/14 07:03:44;;;;;;;15.55;8.32;;;4.90;99.90;;;;;;5113613;28;20127;-61
2023/12/14 07:06:13;;;;;;;15.95;9.07;;;4.90;99.90;;;;;;5114181;28;20114;-61
2023/12/14 07:08:40;;;;;;;13.27;5.72;;;4.90;99.90;;;;;;5114326;28;20049;-61
2023/12/14 07:11:06;;;;;;;10.43;5.57;;;4.90;99.90;;;;;;5131289;28;20043;-61
2023/12/14 07:13:32;;;;;;;10.38;4.55;;;4.90;99.90;;;;;;5097516;28;20047;-61
2023/12/14 07:15:58;;;;;;;12.40;5.22;;;4.90;99.90;;;;;;5113724;28;20130;-61
2023/12/14 07:18:24;;;;;;;9.75;4.88;;;4.90;99.90;;;;;;5114114;28;20047;-60
2023/12/14 07:20:50;;;;;;;9.45;4.80;;;4.90;99.90;;;;;;5131605;28;20069;-60
2023/12/14 07:23:15;;;;;;;9.48;4.20;;;4.90;99.90;;;;;;5113682;28;20035;-61
2023/12/14 07:25:41;;;;;;;16.58;9.32;;;4.90;99.90;;;;;;5113371;28;20039;-60
2023/12/14 07:28:06;;;;;;;11.50;6.28;;;4.90;99.90;;;;;;5114483;28;20079;-61
2023/12/14 07:30:32;;;;;;;12.40;5.95;;;4.90;99.90;;;;;;5123651;28;20042;-61
2023/12/14 07:32:58;;;;;;;11.73;6.43;;;4.90;99.90;;;;;;5112933;28;20043;-61
2023/12/14 07:35:23;;;;;;;11.45;6.20;;;4.90;99.90;;;;;;5115113;28;20042;-61
2023/12/14 07:37:49;;;;;;;12.30;5.95;;;4.90;99.90;;;;;;5130683;28;20551;-60
2023/12/14 07:40:15;;;;;;;11.10;5.57;;;4.90;99.90;;;;;;5112858;28;20043;-60
2023/12/14 07:42:41;;;;;;;12.75;5.55;;;4.90;99.90;;;;;;5115617;27;20084;-61
2023/12/14 07:45:09;;;;;;;13.05;5.00;;;4.90;99.90;;;;;;5130234;27;20038;-60
2023/12/14 07:47:35;;;;;;;12.55;5.97;;;4.90;99.90;;;;;;5131203;27;20690;-60
2023/12/14 07:50:01;;;;;;;11.73;5.80;;;4.90;99.90;;;;;;5118441;27;20047;-61
2023/12/14 07:52:26;;;;;;;14.40;6.53;;;5.00;99.90;;;;;;5131195;27;20092;-61
2023/12/14 07:54:52;;;;;;;12.18;5.90;;;4.90;99.90;;;;;;5115352;27;20039;-61
2023/12/14 07:57:18;;;;;;;12.90;6.28;;;4.90;99.90;;;;;;5115247;27;20053;-60
2023/12/14 07:59:43;;;;;;;13.10;6.00;;;4.90;99.90;;;;;;5095990;27;20050;-61
2023/12/14 08:02:09;;;;;;;11.10;6.18;;;5.00;99.90;;;;;;5098042;27;20035;-61
2023/12/14 08:04:35;;;;;;;11.13;6.20;;;5.00;99.90;;;;;;5115558;27;20062;-61
2023/12/14 08:07:01;;;;;;;9.98;5.55;;;5.00;99.90;;;;;;5117292;27;20047;-61
2023/12/14 08:09:27;;;;;;;16.30;7.40;;;5.00;99.90;;;;;;5130412;27;20050;-60
2023/12/14 08:11:52;;;;;;;12.70;5.82;;;5.00;99.90;;;;;;5127480;27;20138;-61
2023/12/14 08:14:18;;;;;;;15.23;7.65;;;5.00;99.90;;;;;;5113953;27;20574;-60
2023/12/14 08:16:43;;;;;;;16.65;7.82;;;5.00;99.90;;;;;;5107935;27;20043;-60
2023/12/14 08:19:09;;;;;;;13.75;6.60;;;5.00;99.90;;;;;;5109833;27;20089;-59
2023/12/14 08:21:35;;;;;;;22.88;8.85;;;5.00;99.90;;;;;;5116979;27;20051;-59
2023/12/14 08:24:00;;;;;;;16.05;8.60;;;5.00;99.90;;;;;;5115088;27;20039;-59
2023/12/14 08:26:26;;;;;;;19.77;9.65;;;5.00;99.90;;;;;;5112953;27;20031;-59
2023/12/14 08:28:51;;;;;;;15.05;7.50;;;5.00;99.90;;;;;;5121095;27;20031;-59
2023/12/14 08:31:17;;;;;;;17.33;8.73;;;5.00;99.90;;;;;;5102973;27;20042;-59
2023/12/14 08:33:43;;;;;;;21.77;9.00;;;5.00;99.90;;;;;;5113216;27;20441;-59
2023/12/14 08:36:09;;;;;;;19.63;10.13;;;5.10;99.90;;;;;;5114106;27;20035;-60
2023/12/14 08:38:34;;;;;;;17.38;8.10;;;5.10;99.90;;;;;;5114671;27;20415;-59
2023/12/14 08:41:00;;;;;;;16.95;8.13;;;5.00;99.90;;;;;;5130296;27;20047;-59
2023/12/14 08:43:26;;;;;;;15.10;8.25;;;5.00;99.90;;;;;;5130695;27;20039;-60
2023/12/14 08:45:52;;;;;;;16.92;7.90;;;5.10;99.90;;;;;;5108719;27;20035;-60
2023/12/14 08:48:18;;;;;;;15.20;7.50;;;5.10;99.90;;;;;;5113021;27;20047;-60
2023/12/14 08:50:44;;;;;;;12.38;7.28;;;5.10;99.90;;;;;;5096189;27;20042;-59
2023/12/14 08:53:11;;;;;;;15.55;8.10;;;5.10;99.90;;;;;;5098095;27;20088;-60
2023/12/14 08:55:37;;;;;;;14.48;7.30;;;5.10;99.90;;;;;;5116398;27;20556;-59
2023/12/14 08:58:02;;;;;;;13.45;7.97;;;5.10;99.90;;;;;;5105848;27;20043;-59
2023/12/14 09:00:28;;;;;;;16.25;8.13;;;5.10;99.90;;;;;;5111643;27;20109;-59
2023/12/14 09:02:53;;;;;;;14.68;8.40;;;5.10;99.90;;;;;;5095416;27;20146;-61
2023/12/14 09:05:20;;;;;;;15.85;8.13;;;5.10;99.90;;;;;;5123563;27;20070;-60
2023/12/14 09:07:46;;;;;;;18.73;9.75;;;5.10;99.90;;;;;;5097690;27;20042;-59
2023/12/14 09:10:12;;;;;;;22.55;15.82;;;5.10;99.90;;;;;;5099661;27;20035;-60
2023/12/14 09:12:38;;;;;;;21.30;11.68;;;5.20;99.90;;;;;;5107492;27;20043;-60
2023/12/14 09:15:04;;;;;;;22.77;12.18;;;5.20;99.90;;;;;;5131729;27;20074;-60
2023/12/14 09:17:32;;;;;;;18.33;11.18;;;5.20;99.90;;;;;;5107778;27;20050;-60
2023/12/14 09:20:04;;;;;;;25.13;13.57;;;5.10;99.90;;;;;;5115910;27;20047;-59
2023/12/14 09:22:31;;;;;;;20.42;10.73;;;5.20;99.90;;;;;;5127527;27;20105;-59
2023/12/14 09:24:56;;;;;;;16.17;9.52;;;5.20;99.90;;;;;;5122406;27;20118;-59
2023/12/14 09:27:23;;;;;;;17.10;8.65;;;5.20;99.90;;;;;;5129978;27;20722;-60
2023/12/14 09:29:48;;;;;;;19.95;10.05;;;5.20;99.90;;;;;;5113152;27;20047;-60
2023/12/14 09:32:14;;;;;;;20.05;8.50;;;5.30;99.90;;;;;;5116859;27;20487;-60
2023/12/14 09:34:39;;;;;;;19.00;8.77;;;5.30;99.90;;;;;;5115258;27;20066;-60
2023/12/14 09:37:05;;;;;;;14.93;8.05;;;5.30;99.90;;;;;;5113525;27;20126;-59
2023/12/14 09:39:31;;;;;;;16.90;9.00;;;5.30;99.90;;;;;;5112018;27;20078;-60
2023/12/14 09:42:05;;;;;;;17.25;9.05;;;5.30;99.90;;;;;;5115935;27;20078;-60
2023/12/14 09:44:31;;;;;;;14.13;8.52;;;5.40;99.90;;;;;;5129383;27;20353;-60
2023/12/14 09:47:00;;;;;;;14.88;7.32;;;5.40;99.90;;;;;;5114189;27;20039;-60
2023/12/14 09:49:30;;;;;;;18.33;8.07;;;5.40;99.90;;;;;;5101396;27;20084;-61
2023/12/14 09:51:59;;;;;;;15.57;7.40;;;5.40;99.90;;;;;;5097761;27;20054;-60
2023/12/14 09:54:27;;;;;;;16.02;6.75;;;5.40;99.90;;;;;;5112762;27;20053;-60
2023/12/14 09:56:53;;;;;;;14.55;7.88;;;5.40;99.90;;;;;;5113815;27;20043;-60
2023/12/14 09:59:19;;;;;;;15.32;7.07;;;5.50;99.90;;;;;;5110126;27;20045;-60
2023/12/14 10:01:46;;;;;;;16.77;7.63;;;5.40;99.90;;;;;;5114522;27;20130;-60
2023/12/14 10:04:14;;;;;;;15.23;7.38;;;5.50;99.90;;;;;;5119186;27;20039;-60
2023/12/14 10:06:42;;;;;;;14.52;7.88;;;5.40;99.90;;;;;;5112561;27;20035;-60
2023/12/14 10:09:14;;;;;;;16.63;8.48;;;5.40;99.90;;;;;;5118805;27;20035;-60
2023/12/14 10:11:41;;;;;;;19.58;8.63;;;5.60;99.90;;;;;;5117817;27;20040;-60
2023/12/14 10:14:26;;;;;;;19.15;8.98;;;5.60;99.90;;;;;;5130003;27;20103;-60
2023/12/14 10:16:53;;;;;;;16.15;7.90;;;5.60;99.90;;;;;;5114852;27;20100;-60
2023/12/14 10:19:19;;;;;;;12.63;6.80;;;5.70;99.90;;;;;;5122614;27;20126;-60
2023/12/14 10:21:49;;;;;;;16.77;9.30;;;5.70;99.90;;;;;;5115055;27;20054;-60
2023/12/14 10:24:16;;;;;;;17.02;8.32;;;5.80;99.90;;;;;;5129836;27;20072;-60
2023/12/14 10:26:44;;;;;;;16.25;7.55;;;5.80;99.90;;;;;;5131674;27;20043;-59
2023/12/14 10:29:10;;;;;;;12.55;7.55;;;6.00;99.90;;;;;;5119644;27;20470;-59
2023/12/14 10:31:40;;;;;;;12.73;6.63;;;6.00;99.90;;;;;;5114771;27;20035;-59
2023/12/14 10:34:06;;;;;;;11.75;7.10;;;6.10;99.90;;;;;;5114149;27;20031;-59
2023/12/14 10:36:32;;;;;;;15.82;6.90;;;6.10;99.90;;;;;;5114252;27;20050;-59
2023/12/14 10:39:00;;;;;;;14.27;7.90;;;6.10;99.90;;;;;;5114999;28;20031;-59
2023/12/14 10:41:28;;;;;;;12.25;7.35;;;6.10;99.90;;;;;;5113754;28;20047;-59
2023/12/14 10:43:56;;;;;;;16.02;8.02;;;6.00;99.90;;;;;;5114673;28;20044;-59
2023/12/14 10:46:23;;;;;;;14.15;8.23;;;6.10;99.90;;;;;;5114528;28;20114;-59
2023/12/14 10:48:53;;;;;;;13.70;6.53;;;6.00;99.90;;;;;;5113737;28;20038;-60
2023/12/14 10:51:21;;;;;;;15.70;8.48;;;6.10;99.90;;;;;;5114485;28;20078;-59
2023/12/14 10:53:48;;;;;;;15.93;7.18;;;6.10;99.90;;;;;;5114661;28;20054;-59
2023/12/14 10:56:16;;;;;;;14.95;7.82;;;6.10;99.90;;;;;;5113644;28;20095;-59
2023/12/14 10:58:46;;;;;;;15.35;6.78;;;6.20;99.90;;;;;;5114464;28;20035;-59
2023/12/14 11:01:24;;;;;;;14.00;7.38;;;6.20;99.90;;;;;;5113521;28;20055;-60
2023/12/14 11:03:55;;;;;;;12.45;6.72;;;6.20;99.90;;;;;;5114630;28;20075;-59
2023/12/14 11:06:32;;;;;;;17.50;7.55;;;6.20;99.90;;;;;;5114349;28;20035;-59
2023/12/14 11:09:06;;;;;;;14.27;7.55;;;6.20;99.90;;;;;;5113819;28;20040;-59
2023/12/14 11:11:52;;;;;;;14.98;7.18;;;6.10;99.90;;;;;;5114224;28;20043;-59
2023/12/14 11:14:19;;;;;;;12.15;7.05;;;6.10;99.90;;;;;;5097570;28;20055;-59
2023/12/14 11:16:47;;;;;;;20.45;7.88;;;6.10;99.90;;;;;;5113688;28;20373;-59
2023/12/14 11:19:21;;;;;;;15.13;7.22;;;6.10;99.90;;;;;;5135474;27;20039;-59
2023/12/14 11:21:55;;;;;;;13.95;7.30;;;6.10;99.90;;;;;;5118457;27;20122;-59
2023/12/14 11:24:21;;;;;;;15.25;7.35;;;6.10;99.90;;;;;;5117737;27;20043;-59
2023/12/14 11:26:49;;;;;;;16.23;8.38;;;6.10;99.90;;;;;;5118074;27;20031;-59
2023/12/14 11:29:15;;;;;;;17.27;8.95;;;6.10;99.90;;;;;;5135641;27;20067;-60
2023/12/14 11:31:41;;;;;;;16.98;8.07;;;6.10;99.90;;;;;;5100911;27;20039;-59
2023/12/14 11:34:07;;;;;;;13.68;7.28;;;6.10;99.90;;;;;;5136790;27;20092;-59
2023/12/14 11:36:33;;;;;;;14.10;8.18;;;6.10;99.90;;;;;;5116985;27;20043;-59
2023/12/14 11:38:59;;;;;;;14.38;8.65;;;6.00;99.90;;;;;;5118342;27;20043;-59
2023/12/14 11:41:25;;;;;;;12.10;6.20;;;6.00;99.90;;;;;;5117878;27;20046;-59
2023/12/14 11:43:51;;;;;;;14.63;6.95;;;6.00;99.90;;;;;;5117003;27;20035;-59
2023/12/14 11:46:18;;;;;;;10.82;7.43;;;6.00;99.90;;;;;;5136090;27;20074;-59
2023/12/14 11:48:45;;;;;;;13.10;7.20;;;6.00;99.90;;;;;;5117629;27;20043;-59
2023/12/14 11:51:11;;;;;;;14.07;7.38;;;6.00;99.90;;;;;;5117048;27;20043;-59
2023/12/14 11:53:40;;;;;;;12.10;6.57;;;6.00;99.90;;;;;;5117670;27;20554;-59
2023/12/14 11:56:06;;;;;;;13.00;6.88;;;6.10;99.90;;;;;;5100822;27;20050;-59
2023/12/14 11:58:35;;;;;;;15.02;7.97;;;6.10;99.90;;;;;;5116418;27;20043;-59
2023/12/14 12:01:25;;;;;;;16.45;8.27;;;6.10;99.90;;;;;;5136039;27;20051;-59
2023/12/14 12:03:51;;;;;;;12.90;7.13;;;6.10;99.90;;;;;;5117462;27;20472;-59
2023/12/14 12:06:21;;;;;;;13.18;6.82;;;6.10;99.90;;;;;;5116751;27;20067;-59
2023/12/14 12:08:47;;;;;;;13.38;6.97;;;6.10;99.90;;;;;;5117814;27;20510;-59
2023/12/14 12:11:22;;;;;;;16.33;9.18;;;6.10;99.90;;;;;;5117572;27;20043;-59
2023/12/14 12:13:52;;;;;;;12.27;7.30;;;6.10;99.90;;;;;;5116969;27;20046;-59
2023/12/14 12:16:18;;;;;;;12.10;7.00;;;6.10;99.90;;;;;;5117096;27;20043;-59
2023/12/14 12:18:43;;;;;;;13.93;7.00;;;6.10;99.90;;;;;;5099287;27;20495;-59
2023/12/14 12:21:11;;;;;;;15.35;7.80;;;6.00;99.90;;;;;;5117248;27;20039;-59
2023/12/14 12:23:37;;;;;;;15.98;7.28;;;6.00;99.90;;;;;;5116955;27;20080;-59
2023/12/14 12:26:03;;;;;;;14.35;7.07;;;6.00;99.90;;;;;;5116447;27;20118;-59
2023/12/14 12:28:30;;;;;;;14.23;6.65;;;6.00;99.90;;;;;;5116779;27;20043;-59
2023/12/14 12:30:56;;;;;;;15.00;7.75;;;6.00;99.90;;;;;;5117201;27;20126;-59
2023/12/14 12:33:22;;;;;;;12.05;6.72;;;5.90;99.90;;;;;;5098933;27;20122;-59
2023/12/14 12:35:48;;;;;;;13.23;7.32;;;6.00;99.90;;;;;;5135171;27;20039;-60
2023/12/14 12:38:14;;;;;;;14.98;7.40;;;6.00;99.90;;;;;;5116566;27;20039;-60
2023/12/14 12:40:39;;;;;;;15.95;8.32;;;6.00;99.90;;;;;;5115817;27;20043;-59
2023/12/14 12:43:05;;;;;;;16.70;9.15;;;6.00;99.90;;;;;;5117039;27;20039;-60
2023/12/14 12:45:32;;;;;;;13.75;7.63;;;5.90;99.90;;;;;;5116250;27;20031;-60
2023/12/14 12:47:58;;;;;;;13.40;8.15;;;6.00;99.90;;;;;;5115942;27;20050;-60